North Creek, NY (12853)

6:17 PM EDT on July 27, 2016 (GMT -0400)
Old River Road | | Change Station

Elev 1030 ft 43.71 °N, 73.99 °W | Updated 1 minute ago

Clear
Clear
86.9 °F
Feels Like 87 °F
N
1.0
Wind Variable Wind from West
Gusts 2.0 mph

Today
High -- | Low -- °F
--% Chance of Precip.
Yesterday
High -- | Low -- °F
Precip. -- in
Pressure 29.85 in
Visibility 10.0 miles
Clouds Clear
Heat Index 87 °F
Dew Point 61 °F
Humidity 42%
Rainfall 0.00 in
Snow Depth Not available.
5:39 AM 8:23 PM
Last Quarter, 39% visible
METAR KGFL 272153Z AUTO 20010KT 10SM CLR 31/16 A2986 RMK AO2 SLP108 T03110161
Pressure 29.85 in
Visibility 10.0 miles
Clouds Clear
Heat Index 87 °F
Dew Point 61 °F
Humidity 42%
Rainfall 0.00 in
Snow Depth Not available.
5:39 AM 8:23 PM
Last Quarter, 39% visible
METAR KGFL 272153Z AUTO 20010KT 10SM CLR 31/16 A2986 RMK AO2 SLP108 T03110161

10-Day Weather Forecast

Almanac

Astronomy

Jul. 27, 2016 Rise Set
Actual Time
Civil Twilight
Nautical Twilight
Astronomical Twilight
Moon
Length of Visible Light
Length of Day
Tomorrow will be .
, % of the Moon is Illuminated

Today's Extremes

State Highs State Lows

Community

WunderPhotos

Upload Photos

1,927,946 photos uploaded!

WunderBlog® & News

Nearby

Air Quality

  Air Quality AQ Index Pollutant
Not available.

Snow Depth

Station Depth Elevation

Earthquake Activity

City Distance Mag. Time & Date
Minimum magnitude displayed is 2.5.

Coastal Water Temperatures

Place Temperature

Stations

Nearby Weather Stations

Station Location Temp. Windchill Dew Point Humidity Wind Precip. Elev Updated Type
                   

Watches & Warnings

There are currently no watches in effect.